Wilburton, Oklahoma
Current Conditions -  °F | °C
As of 3:53 PM on Saturday 20 Dec 2014 (Local Time) from KMLC Reporting Station
Haze Haze  
Wind Chill: 43°   Ceiling: 2000
Heat Index: 45°   Visibility: 6mi
Dew Point: 42°   Wind: 5mph
Humidity: 90%   Direction: 220°SW
Pressure: 30.2"   Gusts: NA
Location:  34.92°N, 95.31°W
Report Text: KMLC 202153Z AUTO 22004KT 6SM BR OVC020 07/06 A3020 RMK AO2 SLP227 T00720056
Loading
Personal Weather Stations






























Interactive Weather Map New forecast layout! Learn more

10-Day Weather Forecast

Advertisements
Track Severe Weather on mobile